Sandy Lake Airport
CZSJ : now visible

Airfield :











YOU CAN JOIN US ON...

 
LOGIN :

Register | Disclaimer

   EN    FR    IT 

 









Legend :    VFR   Marginal VFR   IFR   Intensive IFR   Very Intensive IFR
Visi :
Ceiling :
>= 8 km
>= 3000ft
5 to 8 km
1000 to 3000 ft
1500m to 5 km
500 to 1000 ft
800 to 1500m
200 to 500 ft
< 800m
< 200 ft
Symbols :   Thunderstorms  Fog  Heavy snow  Heavy precipitations  Wind > 20 kt






- Airport Elevation : 951 ft
- IATA code : ZSJ


CZSJ - Sandy Lake

CURRENT METAR :
  • 110200Z AUTO 00000KT 6SM HZ CLR 06/M03 A3023 RMK SLP254

EXPIRED METARs :
  • 110156Z AUTO 00000KT 3SM HZ CLR 07/M03 A3023 RMK SLP253
  • 110148Z AUTO 16002KT 2 1/4SM HZ CLR 08/M02 A3023 RMK SLP252
  • 110144Z AUTO VRB02KT 5SM HZ CLR 08/M03 A3024 RMK SLP253
  • 110100Z AUTO VRB02KT 9SM CLR 11/M05 A3023 RMK SLP253
  • 110000Z AUTO 31007KT 260V330 9SM SCT076 12/M05 A3023 RMK SLP254

Expired Forecast.
CZWG FIR / North America



MET'MAP, your aeronautical weather chart ! - Copyright ORBIFLY December 2007 - Disclaimer

ORBIFLY MET'MAP TEAM :

Programming & Development : Alexandra Zaïnal
Concept & original design : Baudouin d'Aumeries
Assistance for programming : Marc-Olivier Méhu
Technical & hardware support : Manuel Goepfert

Contact : metmap@orbifly.com




SOURCES & CREDITS :

   NOAA       Earth
Advisory